createdAt,value
2018-05-29T00:01:15.118Z,9.80
2018-05-29T00:03:42.644Z,10.20
2018-05-29T00:06:10.166Z,10.00
2018-05-29T00:08:37.715Z,11.37
2018-05-29T00:11:05.221Z,10.57
2018-05-29T00:13:32.727Z,11.73
2018-05-29T00:16:00.272Z,11.33
2018-05-29T00:18:27.782Z,10.60
2018-05-29T00:20:55.333Z,11.00
2018-05-29T00:23:22.874Z,11.33
2018-05-29T00:25:50.430Z,11.43
2018-05-29T00:28:17.954Z,11.83
2018-05-29T00:30:45.550Z,11.63
2018-05-29T00:33:13.113Z,11.73
2018-05-29T00:35:40.616Z,11.83
2018-05-29T00:38:08.143Z,11.43
2018-05-29T00:40:35.697Z,12.27
2018-05-29T00:43:03.213Z,12.53
2018-05-29T00:45:30.767Z,12.57
2018-05-29T00:47:58.257Z,12.57
2018-05-29T00:50:25.782Z,12.57
2018-05-29T00:52:53.350Z,12.43
2018-05-29T00:55:32.467Z,13.03
2018-05-29T00:58:00.022Z,13.67
2018-05-29T01:00:27.508Z,13.53
2018-05-29T01:02:55.021Z,13.60
2018-05-29T01:05:22.554Z,13.47
2018-05-29T01:07:50.087Z,13.40
2018-05-29T01:10:17.636Z,14.47
2018-05-29T01:12:45.139Z,13.73
2018-05-29T01:15:12.630Z,13.87
2018-05-29T01:17:40.179Z,14.10
2018-05-29T01:20:07.687Z,13.47
2018-05-29T01:22:35.214Z,14.70
2018-05-29T01:25:02.731Z,14.20
2018-05-29T01:27:30.242Z,13.30
2018-05-29T01:29:57.774Z,13.87
2018-05-29T01:32:25.285Z,13.90
2018-05-29T01:34:52.782Z,13.83
2018-05-29T01:37:20.321Z,14.83
2018-05-29T01:39:47.838Z,14.97
2018-05-29T01:42:15.359Z,13.60
2018-05-29T01:44:42.901Z,13.97
2018-05-29T01:47:10.408Z,14.10
2018-05-29T01:49:37.958Z,13.67
2018-05-29T01:52:05.473Z,14.43
2018-05-29T01:54:32.972Z,13.37
2018-05-29T01:57:00.510Z,14.77
2018-05-29T01:59:28.024Z,14.37
2018-05-29T02:01:55.560Z,15.30
2018-05-29T02:04:23.154Z,15.37
2018-05-29T02:06:50.630Z,14.33
2018-05-29T02:09:18.199Z,14.83
2018-05-29T02:11:45.694Z,15.47
2018-05-29T02:14:13.287Z,15.93
2018-05-29T02:16:40.790Z,16.23
2018-05-29T02:19:08.291Z,15.20
2018-05-29T02:21:35.861Z,15.23
2018-05-29T02:24:03.412Z,15.13
2018-05-29T02:26:31.003Z,15.70
2018-05-29T02:28:58.542Z,15.53
2018-05-29T02:31:26.107Z,15.33
2018-05-29T02:33:53.648Z,15.40
2018-05-29T02:36:21.196Z,15.83
2018-05-29T02:38:48.754Z,16.03
2018-05-29T02:41:16.267Z,15.77
2018-05-29T02:43:43.800Z,15.70
2018-05-29T02:46:11.337Z,15.77
2018-05-29T02:48:38.880Z,16.20
2018-05-29T02:51:06.434Z,17.57
2018-05-29T02:53:33.983Z,16.93
2018-05-29T02:56:01.522Z,16.43
2018-05-29T02:58:29.053Z,17.60
2018-05-29T03:00:56.573Z,17.20
2018-05-29T03:03:24.109Z,17.20
2018-05-29T03:05:51.635Z,16.67
2018-05-29T03:08:19.155Z,16.93
2018-05-29T03:10:46.742Z,16.70
2018-05-29T03:13:14.294Z,17.50
2018-05-29T03:15:41.900Z,16.93
2018-05-29T03:18:09.416Z,16.50
2018-05-29T03:20:36.927Z,17.03
2018-05-29T03:23:04.557Z,17.63
2018-05-29T03:25:32.137Z,19.87
2018-05-29T03:27:59.714Z,19.47
2018-05-29T03:30:27.233Z,19.43
2018-05-29T03:32:54.774Z,19.63
2018-05-29T03:35:22.381Z,19.00
2018-05-29T03:37:50.441Z,19.00
2018-05-29T03:40:18.402Z,18.73
2018-05-29T03:42:46.036Z,17.67
2018-05-29T03:45:13.666Z,18.10
2018-05-29T03:47:41.524Z,17.60
2018-05-29T03:50:10.463Z,16.97
2018-05-29T03:52:38.194Z,15.63
2018-05-29T03:55:05.749Z,16.67
2018-05-29T03:57:33.532Z,17.70
2018-05-29T04:00:01.248Z,16.37
2018-05-29T04:02:28.809Z,15.93
2018-05-29T04:04:56.386Z,16.40
2018-05-29T04:07:23.923Z,17.20
2018-05-29T04:09:51.543Z,17.37
2018-05-29T04:12:19.196Z,15.73
2018-05-29T04:14:46.765Z,16.17
2018-05-29T04:17:14.325Z,18.37
2018-05-29T04:19:41.878Z,16.63
2018-05-29T04:22:09.493Z,16.17
2018-05-29T04:24:37.067Z,15.60
2018-05-29T04:27:05.649Z,14.93
2018-05-29T04:29:33.246Z,14.07
2018-05-29T04:32:00.758Z,14.77
2018-05-29T04:34:28.291Z,14.27
2018-05-29T04:36:55.949Z,14.73
2018-05-29T04:41:57.434Z,17.27
2018-05-29T04:44:26.592Z,16.63
2018-05-29T04:46:54.204Z,17.03
2018-05-29T04:49:21.782Z,15.90
2018-05-29T04:51:49.408Z,16.67
2018-05-29T04:54:19.832Z,17.10
2018-05-29T04:56:47.480Z,17.10
2018-05-29T04:59:15.002Z,15.93
2018-05-29T05:01:42.572Z,13.57
2018-05-29T05:04:10.095Z,14.60
2018-05-29T05:06:37.677Z,13.47
2018-05-29T05:09:06.062Z,13.37
2018-05-29T05:11:33.619Z,13.90
2018-05-29T05:14:01.308Z,13.83
2018-05-29T05:16:28.850Z,13.17
2018-05-29T05:18:56.526Z,13.47
2018-05-29T05:21:24.163Z,12.53
2018-05-29T05:23:51.692Z,13.63
2018-05-29T05:26:19.416Z,13.67
2018-05-29T05:28:46.949Z,13.57
2018-05-29T05:31:14.531Z,13.43
2018-05-29T05:33:42.061Z,12.77
2018-05-29T05:36:09.616Z,13.63
2018-05-29T05:38:37.181Z,13.90
2018-05-29T05:41:04.735Z,13.43
2018-05-29T05:43:32.347Z,13.83
2018-05-29T05:45:59.999Z,13.63
2018-05-29T05:48:27.574Z,14.70
2018-05-29T05:50:55.138Z,14.60
2018-05-29T05:53:22.818Z,14.60
2018-05-29T05:55:50.452Z,14.57
2018-05-29T05:58:18.074Z,14.95
2018-05-29T06:00:45.741Z,13.43
2018-05-29T06:03:14.145Z,14.10
2018-05-29T06:05:41.870Z,14.75
2018-05-29T06:08:09.658Z,14.87
2018-05-29T06:10:37.392Z,14.00
2018-05-29T06:13:04.947Z,13.85
2018-05-29T06:15:32.586Z,13.70
2018-05-29T06:18:00.262Z,14.40
2018-05-29T06:20:28.992Z,14.52
2018-05-29T06:22:56.589Z,14.37
2018-05-29T06:25:24.213Z,14.43
2018-05-29T06:27:51.843Z,14.20
2018-05-29T06:30:19.474Z,12.77
2018-05-29T06:32:47.185Z,14.13
2018-05-29T06:35:14.811Z,12.07
2018-05-29T06:37:42.346Z,13.30
2018-05-29T06:40:10.077Z,13.30
2018-05-29T06:42:37.623Z,13.68
2018-05-29T06:45:05.379Z,12.70
2018-05-29T06:47:32.915Z,12.25
2018-05-29T06:50:00.511Z,12.20
2018-05-29T06:52:28.143Z,11.30
2018-05-29T06:54:55.793Z,11.77
2018-05-29T06:57:23.441Z,11.70
2018-05-29T06:59:51.020Z,11.52
2018-05-29T07:02:18.545Z,11.90
2018-05-29T07:04:46.096Z,11.02
2018-05-29T07:07:13.619Z,11.48
2018-05-29T07:09:41.229Z,11.12
2018-05-29T07:12:08.795Z,10.98
2018-05-29T07:14:36.378Z,10.52
2018-05-29T07:17:03.982Z,11.15
2018-05-29T07:19:31.506Z,10.93
2018-05-29T07:21:59.053Z,10.25
2018-05-29T07:24:26.574Z,9.43
2018-05-29T07:26:54.108Z,10.55
2018-05-29T07:29:21.727Z,10.05
2018-05-29T07:31:49.295Z,10.00
2018-05-29T07:34:16.895Z,10.45
2018-05-29T07:36:44.498Z,9.48
2018-05-29T07:39:12.155Z,8.85
2018-05-29T07:41:39.696Z,9.90
2018-05-29T07:44:07.251Z,9.27
2018-05-29T07:46:34.821Z,9.95
2018-05-29T07:49:03.526Z,8.30
2018-05-29T07:51:31.163Z,8.25
2018-05-29T07:53:58.691Z,8.40
2018-05-29T07:56:26.201Z,8.70
2018-05-29T07:58:53.776Z,7.65
2018-05-29T08:01:21.282Z,8.65
2018-05-29T08:03:48.795Z,9.85
2018-05-29T08:06:17.074Z,9.52
2018-05-29T08:08:44.605Z,10.02
2018-05-29T08:11:12.115Z,9.00
2018-05-29T08:13:39.634Z,9.10
2018-05-29T08:16:07.190Z,9.30
2018-05-29T08:18:34.716Z,9.73
2018-05-29T08:21:02.230Z,9.07
2018-05-29T08:23:29.774Z,8.80
2018-05-29T08:25:57.284Z,7.70
2018-05-29T08:28:24.794Z,9.45
2018-05-29T08:30:52.356Z,8.43
2018-05-29T08:33:19.950Z,8.13
2018-05-29T08:35:47.528Z,8.57
2018-05-29T08:38:15.161Z,7.40
2018-05-29T08:40:42.674Z,7.07
2018-05-29T08:43:10.201Z,6.43
2018-05-29T08:45:37.705Z,6.10
2018-05-29T08:48:05.213Z,5.18
2018-05-29T08:50:32.745Z,5.43
2018-05-29T08:53:00.259Z,5.90
2018-05-29T08:55:27.789Z,5.40
2018-05-29T08:57:55.410Z,6.62
2018-05-29T09:00:22.924Z,6.50
2018-05-29T09:02:50.459Z,6.15
2018-05-29T09:05:17.989Z,6.20
2018-05-29T09:07:45.543Z,4.93
2018-05-29T09:10:13.050Z,6.15
2018-05-29T09:12:40.569Z,6.65
2018-05-29T09:15:08.121Z,5.85
2018-05-29T09:17:35.636Z,5.55
2018-05-29T09:20:03.216Z,5.68
2018-05-29T09:22:30.690Z,5.22
2018-05-29T09:24:58.206Z,5.47
2018-05-29T09:27:25.742Z,5.28
2018-05-29T09:29:53.302Z,5.25
2018-05-29T09:32:20.803Z,4.93
2018-05-29T09:34:48.285Z,4.80
2018-05-29T09:37:15.787Z,4.68
2018-05-29T09:39:43.298Z,4.80
2018-05-29T09:42:10.794Z,5.22
2018-05-29T09:44:38.340Z,5.60
2018-05-29T09:47:05.849Z,5.18
2018-05-29T09:49:33.349Z,5.37
2018-05-29T09:52:00.861Z,4.65
2018-05-29T09:54:28.385Z,4.80
2018-05-29T09:56:55.879Z,4.45
2018-05-29T09:59:23.366Z,4.47
2018-05-29T10:01:50.862Z,3.95
2018-05-29T10:04:18.387Z,4.32
2018-05-29T10:06:45.898Z,4.12
2018-05-29T10:09:13.471Z,4.37
2018-05-29T10:11:40.950Z,4.18
2018-05-29T10:14:08.450Z,3.95
2018-05-29T10:16:35.956Z,4.20
2018-05-29T10:19:03.444Z,4.85
2018-05-29T10:21:30.964Z,4.82
2018-05-29T10:23:58.455Z,3.95
2018-05-29T10:26:25.970Z,4.75
2018-05-29T10:28:53.487Z,4.85
2018-05-29T10:31:20.978Z,5.07
2018-05-29T10:33:48.495Z,4.20
2018-05-29T10:36:16.364Z,4.55
2018-05-29T10:38:43.866Z,5.62
2018-05-29T10:41:11.373Z,5.45
2018-05-29T10:43:38.859Z,5.03
2018-05-29T10:46:06.441Z,5.18
2018-05-29T10:48:33.902Z,5.45
2018-05-29T10:51:01.417Z,5.07
2018-05-29T10:53:28.935Z,4.50
2018-05-29T10:55:56.425Z,5.60
2018-05-29T10:58:23.937Z,5.20
2018-05-29T11:00:51.413Z,5.72
2018-05-29T11:03:18.937Z,5.62
2018-05-29T11:05:46.459Z,4.62
2018-05-29T11:08:13.962Z,4.60
2018-05-29T11:10:41.501Z,4.28
2018-05-29T11:13:08.997Z,5.32
2018-05-29T11:15:36.490Z,5.03
2018-05-29T11:18:04.003Z,3.87
2018-05-29T11:20:31.490Z,3.97
2018-05-29T11:22:59.017Z,4.55
2018-05-29T11:25:26.505Z,4.43
2018-05-29T11:27:54.017Z,4.62
2018-05-29T11:30:22.622Z,4.55
2018-05-29T11:32:50.113Z,5.45
2018-05-29T11:35:17.634Z,4.20
2018-05-29T11:37:45.132Z,4.55
2018-05-29T11:40:12.646Z,4.62
2018-05-29T11:42:40.161Z,4.40
2018-05-29T11:45:07.650Z,4.32
2018-05-29T11:47:35.175Z,4.70
2018-05-29T11:50:02.694Z,4.75
2018-05-29T11:52:30.204Z,4.03
2018-05-29T11:54:57.781Z,5.10
2018-05-29T11:57:25.243Z,5.20
2018-05-29T11:59:52.753Z,4.93
2018-05-29T12:02:20.338Z,4.60
2018-05-29T12:04:47.825Z,4.57
2018-05-29T12:07:15.344Z,4.00
2018-05-29T12:09:42.863Z,3.90
2018-05-29T12:12:27.125Z,3.70
2018-05-29T12:14:54.653Z,4.47
2018-05-29T12:17:22.147Z,3.70
2018-05-29T12:19:49.668Z,4.40
2018-05-29T12:22:17.201Z,3.80
2018-05-29T12:24:44.726Z,3.80
2018-05-29T12:27:12.218Z,3.80
2018-05-29T12:29:39.710Z,3.80
2018-05-29T12:32:07.229Z,3.90
2018-05-29T12:34:34.724Z,3.87
2018-05-29T12:37:02.223Z,3.43
2018-05-29T12:39:29.726Z,3.83
2018-05-29T12:41:57.204Z,3.70
2018-05-29T12:44:24.712Z,3.43
2018-05-29T12:46:52.201Z,4.17
2018-05-29T12:49:19.753Z,4.10
2018-05-29T12:51:47.246Z,3.97
2018-05-29T12:54:14.741Z,3.87
2018-05-29T12:56:42.270Z,3.93
2018-05-29T12:59:09.769Z,4.10
2018-05-29T13:01:37.326Z,4.43
2018-05-29T13:04:04.821Z,3.97
2018-05-29T13:06:32.314Z,4.53
2018-05-29T13:08:59.827Z,4.03
2018-05-29T13:11:27.329Z,4.43
2018-05-29T13:13:54.900Z,3.30
2018-05-29T13:16:22.397Z,4.23
2018-05-29T13:18:49.908Z,4.00
2018-05-29T13:21:17.413Z,4.20
2018-05-29T13:23:44.908Z,4.00
2018-05-29T13:26:12.422Z,4.33
2018-05-29T13:28:39.914Z,3.63
2018-05-29T13:31:07.396Z,4.20
2018-05-29T13:33:34.899Z,4.30
2018-05-29T13:36:02.383Z,4.37
2018-05-29T13:38:29.926Z,4.67
2018-05-29T13:40:57.425Z,4.37
2018-05-29T13:43:24.920Z,3.93
2018-05-29T13:45:52.440Z,4.37
2018-05-29T13:48:19.929Z,4.10
2018-05-29T13:50:47.453Z,4.03
2018-05-29T13:53:15.142Z,4.00
2018-05-29T13:55:42.641Z,3.93
2018-05-29T13:58:10.213Z,4.07
2018-05-29T14:00:37.717Z,3.83
2018-05-29T14:03:05.258Z,4.00
2018-05-29T14:05:32.802Z,4.07
2018-05-29T14:08:00.297Z,4.27
2018-05-29T14:10:27.944Z,3.60
2018-05-29T14:12:55.457Z,4.47
2018-05-29T14:15:23.013Z,4.60
2018-05-29T14:17:50.507Z,4.57
2018-05-29T14:20:18.087Z,4.63
2018-05-29T14:22:45.589Z,4.20
2018-05-29T14:25:13.119Z,4.33
2018-05-29T14:27:40.679Z,3.90
2018-05-29T14:30:08.221Z,4.07
2018-05-29T14:32:35.759Z,4.23
2018-05-29T14:35:03.258Z,4.80
2018-05-29T14:37:30.789Z,4.47
2018-05-29T14:39:58.306Z,4.33
2018-05-29T14:42:25.795Z,3.97
2018-05-29T14:44:53.312Z,4.87
2018-05-29T14:47:20.821Z,4.23
2018-05-29T14:49:48.317Z,4.47
2018-05-29T14:52:15.912Z,4.67
2018-05-29T14:54:43.393Z,4.70
2018-05-29T14:57:10.917Z,4.47
2018-05-29T14:59:38.425Z,4.80
2018-05-29T15:02:05.929Z,3.93
2018-05-29T15:04:33.511Z,4.70
2018-05-29T15:07:01.045Z,3.80
2018-05-29T15:09:28.548Z,3.53
2018-05-29T15:11:56.110Z,3.67
2018-05-29T15:14:23.613Z,3.60
2018-05-29T15:16:51.109Z,3.67
2018-05-29T15:19:18.633Z,3.10
2018-05-29T15:21:46.122Z,4.10
2018-05-29T15:24:13.627Z,4.00
2018-05-29T15:26:41.138Z,3.37
2018-05-29T15:29:08.639Z,3.77
2018-05-29T15:31:36.168Z,4.10
2018-05-29T15:34:03.670Z,3.90
2018-05-29T15:36:31.176Z,3.70
2018-05-29T15:38:58.682Z,3.70
2018-05-29T15:41:26.181Z,3.83
2018-05-29T15:43:53.709Z,4.47
2018-05-29T15:46:21.196Z,4.10
2018-05-29T15:48:48.710Z,3.80
2018-05-29T15:51:16.228Z,4.30
2018-05-29T15:53:43.711Z,3.60
2018-05-29T15:56:11.214Z,4.00
2018-05-29T15:58:38.724Z,3.93
2018-05-29T16:01:06.217Z,3.70
2018-05-29T16:03:33.730Z,3.80
2018-05-29T16:06:01.276Z,4.27
2018-05-29T16:08:28.761Z,3.50
2018-05-29T16:10:56.258Z,3.80
2018-05-29T16:13:23.763Z,3.70
2018-05-29T16:15:51.253Z,3.93
2018-05-29T16:18:18.786Z,4.43
2018-05-29T16:20:46.314Z,4.17
2018-05-29T16:23:13.804Z,4.13
2018-05-29T16:25:41.294Z,4.53
2018-05-29T16:28:08.839Z,4.30
2018-05-29T16:30:36.367Z,4.80
2018-05-29T16:33:03.842Z,4.53
2018-05-29T16:35:31.390Z,4.10
2018-05-29T16:37:58.896Z,4.67
2018-05-29T16:40:26.439Z,3.90
2018-05-29T16:42:53.961Z,4.30
2018-05-29T16:45:21.466Z,4.70
2018-05-29T16:47:48.984Z,5.03
2018-05-29T16:50:16.578Z,4.20
2018-05-29T16:52:44.086Z,4.50
2018-05-29T16:55:11.610Z,4.30
2018-05-29T16:57:39.132Z,4.30
2018-05-29T17:00:06.654Z,4.17
2018-05-29T17:02:34.145Z,3.90
2018-05-29T17:05:01.655Z,4.30
2018-05-29T17:07:29.150Z,4.30
2018-05-29T17:09:56.647Z,4.00
2018-05-29T17:12:24.190Z,4.27
2018-05-29T17:14:51.705Z,3.90
2018-05-29T17:17:19.202Z,4.73
2018-05-29T17:19:46.783Z,4.83
2018-05-29T17:22:14.293Z,4.93
2018-05-29T17:24:41.792Z,4.70
2018-05-29T17:27:09.321Z,4.63
2018-05-29T17:29:36.881Z,4.17
2018-05-29T17:32:04.379Z,4.50
2018-05-29T17:34:31.909Z,5.30
2018-05-29T17:36:59.435Z,5.30
2018-05-29T17:39:27.076Z,5.30
2018-05-29T17:41:54.630Z,5.10
2018-05-29T17:44:22.129Z,5.17
2018-05-29T17:46:49.646Z,5.47
2018-05-29T17:49:17.195Z,5.50
2018-05-29T17:51:44.730Z,5.57
2018-05-29T17:54:12.262Z,5.90
2018-05-29T17:56:39.780Z,5.10
2018-05-29T17:59:07.329Z,5.90
2018-05-29T18:01:34.826Z,6.10
2018-05-29T18:04:02.461Z,5.73
2018-05-29T18:06:29.982Z,6.40
2018-05-29T18:08:57.471Z,6.60
2018-05-29T18:11:25.031Z,6.47
2018-05-29T18:13:52.618Z,6.30
2018-05-29T18:16:20.125Z,5.97
2018-05-29T18:18:47.656Z,6.07
2018-05-29T18:21:15.174Z,6.53
2018-05-29T18:23:42.661Z,5.77
2018-05-29T18:26:10.179Z,6.30
2018-05-29T18:28:37.728Z,6.10
2018-05-29T18:31:05.419Z,4.80
2018-05-29T18:33:33.060Z,5.20
2018-05-29T18:36:00.587Z,4.83
2018-05-29T18:38:28.112Z,5.07
2018-05-29T18:40:55.676Z,5.00
2018-05-29T18:43:23.181Z,5.20
2018-05-29T18:45:51.004Z,4.60
2018-05-29T18:48:18.529Z,4.80
2018-05-29T18:50:46.032Z,4.90
2018-05-29T18:53:13.752Z,4.77
2018-05-29T18:55:41.321Z,4.60
2018-05-29T18:58:08.813Z,4.27
2018-05-29T19:00:36.311Z,3.90
2018-05-29T19:03:04.066Z,4.70
2018-05-29T19:05:31.575Z,4.60
2018-05-29T19:07:59.056Z,4.33
2018-05-29T19:10:26.977Z,4.30
2018-05-29T19:12:54.475Z,3.73
2018-05-29T19:15:21.969Z,4.00
2018-05-29T19:17:49.659Z,3.70
2018-05-29T19:20:17.328Z,3.80
2018-05-29T19:22:44.866Z,3.90
2018-05-29T19:25:12.376Z,3.70
2018-05-29T19:27:39.953Z,3.50
2018-05-29T19:30:07.631Z,3.63
2018-05-29T19:32:35.215Z,3.40
2018-05-29T19:35:02.730Z,3.50
2018-05-29T19:37:30.257Z,3.60
2018-05-29T19:39:57.990Z,3.63
2018-05-29T19:42:25.519Z,3.50
2018-05-29T19:44:53.050Z,3.57
2018-05-29T19:47:20.597Z,3.80
2018-05-29T19:49:48.268Z,3.50
2018-05-29T19:52:15.884Z,4.07
2018-05-29T19:54:43.426Z,4.00
2018-05-29T19:57:10.909Z,4.23
2018-05-29T19:59:38.402Z,4.10
2018-05-29T20:02:05.916Z,4.13
2018-05-29T20:04:33.415Z,4.47
2018-05-29T20:07:00.957Z,4.50
2018-05-29T20:09:28.445Z,4.30
2018-05-29T20:11:55.943Z,4.70
2018-05-29T20:14:23.477Z,5.77
2018-05-29T20:16:51.021Z,5.33
2018-05-29T20:19:18.578Z,5.10
2018-05-29T20:21:46.071Z,6.13
2018-05-29T20:24:13.591Z,6.70
2018-05-29T20:26:41.078Z,7.27
2018-05-29T20:29:08.585Z,6.70
2018-05-29T20:31:36.104Z,7.40
2018-05-29T20:34:03.591Z,6.50
2018-05-29T20:36:31.081Z,6.73
2018-05-29T20:38:58.610Z,6.70
2018-05-29T20:41:26.112Z,6.57
2018-05-29T20:43:53.698Z,7.03
2018-05-29T20:46:21.173Z,7.30
2018-05-29T20:48:49.067Z,7.23
2018-05-29T20:51:16.560Z,6.97
2018-05-29T20:53:44.072Z,7.53
2018-05-29T20:56:11.570Z,7.43
2018-05-29T20:58:39.374Z,7.43
2018-05-29T21:01:06.957Z,8.47
2018-05-29T21:03:34.446Z,8.20
2018-05-29T21:06:01.941Z,9.23
2018-05-29T21:08:29.461Z,8.70
2018-05-29T21:10:56.963Z,8.20
2018-05-29T21:13:25.333Z,8.73
2018-05-29T21:15:52.872Z,8.70
2018-05-29T21:18:20.408Z,9.17
2018-05-29T21:20:47.903Z,8.67
2018-05-29T21:23:15.488Z,9.53
2018-05-29T21:25:43.001Z,9.33
2018-05-29T21:28:10.494Z,7.50
2018-05-29T21:30:38.021Z,7.47
2018-05-29T21:33:05.560Z,7.60
2018-05-29T21:35:33.228Z,8.33
2018-05-29T21:38:00.836Z,9.97
2018-05-29T21:40:28.346Z,9.40
2018-05-29T21:42:55.893Z,10.90
2018-05-29T21:45:23.473Z,10.73
2018-05-29T21:47:51.013Z,13.03
2018-05-29T21:50:18.551Z,12.70
2018-05-29T21:52:46.087Z,13.57
2018-05-29T21:55:13.628Z,10.73
2018-05-29T21:57:41.117Z,8.63
2018-05-29T22:00:08.721Z,9.17
2018-05-29T22:02:36.321Z,10.83
2018-05-29T22:05:03.838Z,11.77
2018-05-29T22:07:31.388Z,12.37
2018-05-29T22:09:58.946Z,12.47
2018-05-29T22:12:26.470Z,11.83
2018-05-29T22:14:54.034Z,10.37
2018-05-29T22:17:21.549Z,11.17
2018-05-29T22:19:49.049Z,10.60
2018-05-29T22:22:16.621Z,10.87
2018-05-29T22:24:44.145Z,10.23
2018-05-29T22:27:11.693Z,11.20
2018-05-29T22:29:39.225Z,10.87
2018-05-29T22:32:06.761Z,11.13
2018-05-29T22:34:34.286Z,8.83
2018-05-29T22:37:01.867Z,9.50
2018-05-29T22:39:29.419Z,9.23
2018-05-29T22:41:56.974Z,8.87
2018-05-29T22:44:24.560Z,8.70
2018-05-29T22:46:52.072Z,9.17
2018-05-29T22:49:19.662Z,9.40
2018-05-29T22:51:47.199Z,9.13
2018-05-29T22:54:14.708Z,9.03
2018-05-29T22:56:42.302Z,9.37
2018-05-29T22:59:09.823Z,9.13
2018-05-29T23:01:37.337Z,10.67
2018-05-29T23:04:04.901Z,8.70
2018-05-29T23:06:32.422Z,9.97
2018-05-29T23:09:00.721Z,10.87
2018-05-29T23:11:28.222Z,11.77
2018-05-29T23:13:55.788Z,11.27
2018-05-29T23:16:24.056Z,11.63
2018-05-29T23:18:51.571Z,11.57
2018-05-29T23:21:19.152Z,12.03
2018-05-29T23:23:46.666Z,11.67
2018-05-29T23:26:14.185Z,11.73
2018-05-29T23:28:41.797Z,12.43
2018-05-29T23:31:09.360Z,12.40
2018-05-29T23:33:36.869Z,13.43
2018-05-29T23:36:04.480Z,14.03
2018-05-29T23:38:32.032Z,13.50
2018-05-29T23:40:59.639Z,13.70
2018-05-29T23:43:27.201Z,14.63
2018-05-29T23:45:54.761Z,15.80
2018-05-29T23:48:22.303Z,14.63
2018-05-29T23:50:49.825Z,14.83
2018-05-29T23:53:17.333Z,14.23
2018-05-29T23:55:44.872Z,14.80
2018-05-29T23:58:12.501Z,14.80
